Briefing drone pour Arpajon-sur-cere

Rechercher une autre localisation

Conditions de vol :


Nous sommes le : Dimanche 14 avril 2024
Il est 01:33 UTC (03:33 LT)

Lever de soleil : 04:39 UTC (06:39 LT)
Coucher de soleil : 19:01 UTC (21:01 LT)

Météo

L'essentiel des conditions de vol

VIGILANCE MÉTÉO FRANCE - Cantal (15)
Pas de vigilances particulieres
CARTE TEMSI
CARTES DES FRONTS
METAR de LFLW
LFLW 130930Z AUTO 33004KT 270V010 CAVOK 21/08 Q1029 NOSIG

Date d'émission: 13/04/2024
Heure d'émission: 09:30 UTC
Vent: 330° (variable du 270° au 010°) pour 4 KT (7 km/h)
Visibilité horizontale: > 10 km
Plafond : Plafond et visibilité OK (CAVOK)
Température: 21 °C
Point de rosée: 8 °C
Humidité: 43%
Pression (QNH): 1029 hPa
Conditions: Pas de changement dans les 2 heures (NOSIG)
Prévision 24h pour Aurillac (1 km)
Vent : 41° pour 1 KT (4 km/h)
Temperature Maxi: 14 °C
Temperature Min: 14 °C
Humidité : 95%
Condition : Couvert


WEBCAM POUR ARPAJON-SUR-CERE

Réglementation

Voler en sécurité

CARTES AERONAUTIQUE 1/500.000
CARTE AZBA (Reseau basse altitude)
CARTES VAC (LFLW)
SUP AIP




Chargement des AIP...
NOTAM (ARPAJON-SUR-CERE + Terrain à proximité / FIR )




Chargement des NOTAMS...
CONTACT PREFECTURE 15
Cantal (15) : [email protected]


Avertissement : Les données mises à disposition sont indicatives. Oxygène Drone ne pourra être tenu responsable de dégâts causés aux biens et aux personnes.